createdAt,value
2022-10-21T00:00:54.473Z,6.00
2022-10-21T00:03:56.027Z,5.90
2022-10-21T00:06:57.589Z,6.65
2022-10-21T00:09:59.144Z,6.22
2022-10-21T00:13:00.615Z,5.72
2022-10-21T00:16:14.954Z,5.90
2022-10-21T00:22:17.859Z,7.57
2022-10-21T00:25:19.629Z,7.40
2022-10-21T00:28:21.186Z,8.55
2022-10-21T00:31:23.767Z,9.20
2022-10-21T00:34:28.582Z,9.38
2022-10-21T00:37:33.277Z,8.05
2022-10-21T00:40:35.089Z,8.13
2022-10-21T00:44:13.714Z,9.05
2022-10-21T00:47:21.830Z,10.45
2022-10-21T00:50:30.800Z,10.20
2022-10-21T00:53:34.981Z,10.15
2022-10-21T00:56:37.563Z,10.70
2022-10-21T00:59:44.074Z,10.52
2022-10-21T01:02:45.898Z,10.18
2022-10-21T01:05:47.865Z,10.20
2022-10-21T01:08:49.867Z,10.55
2022-10-21T01:11:52.104Z,9.85
2022-10-21T01:18:16.293Z,9.27
2022-10-21T01:21:47.765Z,9.18
2022-10-21T01:25:17.200Z,8.80
2022-10-21T01:28:52.638Z,8.13
2022-10-21T01:32:02.224Z,7.53
2022-10-21T01:35:21.714Z,7.10
2022-10-21T01:38:32.693Z,7.05
2022-10-21T01:41:42.177Z,7.43
2022-10-21T01:44:52.908Z,8.20
2022-10-21T01:47:57.680Z,6.30
2022-10-21T01:51:05.687Z,7.10
2022-10-21T01:54:13.010Z,6.85
2022-10-21T01:57:18.630Z,6.57
2022-10-21T02:00:20.741Z,6.50
2022-10-21T02:03:31.177Z,6.22
2022-10-21T02:06:33.026Z,6.70
2022-10-21T02:09:34.693Z,7.63
2022-10-21T02:12:39.622Z,7.53
2022-10-21T02:15:44.909Z,6.97
2022-10-21T02:18:46.638Z,6.45
2022-10-21T02:21:51.853Z,6.40
2022-10-21T02:24:58.650Z,6.75
2022-10-21T02:28:00.616Z,7.55
2022-10-21T02:31:14.358Z,7.25
2022-10-21T02:34:45.101Z,7.28
2022-10-21T02:37:59.951Z,6.43
2022-10-21T02:41:04.580Z,6.32
2022-10-21T02:44:07.507Z,6.15
2022-10-21T02:47:09.040Z,7.35
2022-10-21T02:50:10.789Z,7.15
2022-10-21T02:53:13.334Z,6.97
2022-10-21T02:56:14.837Z,6.50
2022-10-21T02:59:16.393Z,7.25
2022-10-21T03:02:17.874Z,6.85
2022-10-21T03:05:19.396Z,7.50
2022-10-21T03:08:20.961Z,6.38
2022-10-21T03:11:22.534Z,7.38
2022-10-21T03:14:24.000Z,7.32
2022-10-21T03:17:25.650Z,7.15
2022-10-21T03:20:27.186Z,7.00
2022-10-21T03:23:28.743Z,7.78
2022-10-21T03:26:30.198Z,7.60
2022-10-21T03:29:31.689Z,7.00
2022-10-21T03:32:33.309Z,7.82
2022-10-21T03:35:34.866Z,6.75
2022-10-21T03:38:36.424Z,7.85
2022-10-21T03:41:38.015Z,7.75
2022-10-21T03:44:39.573Z,7.63
2022-10-21T03:47:41.073Z,7.82
2022-10-21T03:50:42.585Z,6.70
2022-10-21T03:53:44.167Z,7.03
2022-10-21T03:56:46.010Z,7.28
2022-10-21T03:59:47.522Z,7.60
2022-10-21T04:02:49.428Z,7.30
2022-10-21T04:05:50.921Z,7.05
2022-10-21T04:08:52.707Z,7.95
2022-10-21T04:11:54.345Z,7.88
2022-10-21T04:14:55.795Z,7.55
2022-10-21T04:17:57.352Z,7.80
2022-10-21T04:20:58.874Z,7.30
2022-10-21T04:24:00.330Z,7.57
2022-10-21T04:27:01.839Z,7.95
2022-10-21T04:30:03.855Z,8.45
2022-10-21T04:33:05.514Z,7.88
2022-10-21T04:36:07.379Z,8.32
2022-10-21T04:39:08.905Z,8.13
2022-10-21T04:42:10.382Z,7.85
2022-10-21T04:45:11.845Z,8.02
2022-10-21T04:48:13.710Z,9.60
2022-10-21T04:51:15.531Z,8.15
2022-10-21T04:54:17.179Z,7.38
2022-10-21T04:57:20.434Z,8.77
2022-10-21T05:00:21.950Z,7.87
2022-10-21T05:03:23.545Z,8.68
2022-10-21T05:06:25.102Z,7.32
2022-10-21T05:09:26.557Z,7.05
2022-10-21T05:12:28.041Z,7.68
2022-10-21T05:15:29.569Z,7.70
2022-10-21T05:18:31.540Z,8.00
2022-10-21T05:24:53.586Z,8.18
2022-10-21T05:27:55.039Z,7.88
2022-10-21T05:30:56.544Z,7.90
2022-10-21T05:33:58.165Z,7.32
2022-10-21T05:36:59.656Z,7.50
2022-10-21T05:40:03.839Z,10.55
2022-10-21T05:43:05.356Z,8.43
2022-10-21T05:46:08.591Z,7.90
2022-10-21T05:49:10.045Z,7.90
2022-10-21T05:52:12.322Z,7.18
2022-10-21T05:55:13.775Z,8.30
2022-10-21T05:58:15.333Z,8.10
2022-10-21T06:01:17.597Z,8.98
2022-10-21T06:04:19.167Z,8.35
2022-10-21T06:07:20.608Z,7.85
2022-10-21T06:10:25.507Z,8.20
2022-10-21T06:13:31.109Z,7.05
2022-10-21T06:16:35.282Z,7.50
2022-10-21T06:19:36.822Z,7.03
2022-10-21T06:22:38.441Z,6.95
2022-10-21T06:25:39.896Z,5.97
2022-10-21T06:28:43.780Z,6.65
2022-10-21T06:31:45.775Z,7.28
2022-10-21T06:34:47.253Z,6.10
2022-10-21T06:37:48.787Z,6.30
2022-10-21T06:40:50.263Z,6.40
2022-10-21T06:43:51.780Z,7.88
2022-10-21T06:46:54.139Z,7.30
2022-10-21T06:49:55.835Z,6.07
2022-10-21T06:52:57.404Z,8.07
2022-10-21T06:56:08.075Z,6.30
2022-10-21T06:59:10.290Z,7.20
2022-10-21T07:02:11.751Z,6.50
2022-10-21T07:05:13.342Z,6.25
2022-10-21T07:08:14.909Z,5.30
2022-10-21T07:11:16.465Z,6.57
2022-10-21T07:14:17.980Z,5.97
2022-10-21T07:17:20.501Z,6.07
2022-10-21T07:20:24.908Z,6.05
2022-10-21T07:23:26.780Z,5.97
2022-10-21T07:26:31.318Z,5.85
2022-10-21T07:29:32.860Z,6.28
2022-10-21T07:32:37.503Z,6.80
2022-10-21T07:35:39.062Z,6.97
2022-10-21T07:38:43.844Z,6.78
2022-10-21T07:41:54.361Z,6.68
2022-10-21T07:44:59.913Z,6.32
2022-10-21T07:48:01.369Z,6.35
2022-10-21T07:51:08.724Z,5.85
2022-10-21T07:54:12.849Z,5.53
2022-10-21T07:57:14.509Z,5.97
2022-10-21T08:00:15.964Z,6.53
2022-10-21T08:03:17.928Z,4.05
2022-10-21T08:06:19.412Z,3.53
2022-10-21T08:09:21.890Z,3.53
2022-10-21T08:12:26.825Z,3.45
2022-10-21T08:15:28.282Z,3.22
2022-10-21T08:18:29.836Z,3.40
2022-10-21T08:21:31.486Z,3.60
2022-10-21T08:24:33.161Z,3.53
2022-10-21T08:27:35.325Z,3.85
2022-10-21T08:30:36.985Z,3.80
2022-10-21T08:33:38.950Z,3.50
2022-10-21T08:36:40.813Z,3.28
2022-10-21T08:39:42.268Z,3.10
2022-10-21T08:42:45.506Z,2.97
2022-10-21T08:46:05.760Z,3.42
2022-10-21T08:49:15.624Z,3.13
2022-10-21T08:52:22.083Z,2.63
2022-10-21T08:55:30.218Z,2.70
2022-10-21T08:58:31.977Z,2.70
2022-10-21T09:01:56.829Z,1.95
2022-10-21T09:05:10.557Z,2.13
2022-10-21T09:08:59.973Z,2.45
2022-10-21T09:12:07.160Z,1.88
2022-10-21T09:15:24.319Z,1.88
2022-10-21T09:18:41.752Z,1.27
2022-10-21T09:22:22.502Z,1.55
2022-10-21T09:25:32.620Z,1.10
2022-10-21T09:28:34.854Z,0.82
2022-10-21T09:31:36.490Z,1.33
2022-10-21T09:34:47.576Z,2.33
2022-10-21T09:37:51.518Z,1.73
2022-10-21T09:44:04.799Z,1.35
2022-10-21T09:47:32.460Z,3.47
2022-10-21T09:50:35.055Z,2.15
2022-10-21T09:53:53.704Z,2.10
2022-10-21T09:57:14.176Z,11.00
2022-10-21T10:00:15.716Z,2.42
2022-10-21T10:03:33.247Z,2.20
2022-10-21T10:06:39.160Z,2.00
2022-10-21T10:09:46.089Z,2.78
2022-10-21T10:12:55.961Z,3.38
2022-10-21T10:16:31.350Z,3.72
2022-10-21T10:19:32.970Z,3.58
2022-10-21T10:22:35.753Z,2.17
2022-10-21T10:25:39.377Z,16.70
2022-10-21T10:31:50.979Z,3.03
2022-10-21T10:34:57.173Z,3.92
2022-10-21T10:38:01.421Z,3.85
2022-10-21T10:41:07.745Z,3.10
2022-10-21T10:44:20.013Z,2.80
2022-10-21T10:47:27.931Z,2.47
2022-10-21T10:50:38.360Z,2.95
2022-10-21T10:53:39.775Z,4.20
2022-10-21T10:56:53.363Z,3.22
2022-10-21T11:00:04.657Z,3.00
2022-10-21T11:03:14.437Z,2.90
2022-10-21T11:06:18.344Z,2.42
2022-10-21T11:12:26.635Z,2.85
2022-10-21T11:15:49.203Z,3.92
2022-10-21T11:18:56.661Z,5.43
2022-10-21T11:22:39.426Z,2.78
2022-10-21T11:25:46.620Z,2.58
2022-10-21T11:28:54.756Z,2.58
2022-10-21T11:32:26.993Z,3.08
2022-10-21T11:36:00.481Z,2.58
2022-10-21T11:39:21.382Z,2.75
2022-10-21T11:42:31.776Z,3.22
2022-10-21T11:46:02.957Z,2.70
2022-10-21T11:49:36.365Z,3.05
2022-10-21T11:52:44.435Z,3.05
2022-10-21T11:56:10.271Z,2.38
2022-10-21T11:59:17.883Z,2.75
2022-10-21T12:02:30.277Z,2.50
2022-10-21T12:05:37.556Z,2.15
2022-10-21T12:08:50.750Z,2.25
2022-10-21T12:12:06.787Z,2.35
2022-10-21T12:15:18.976Z,3.17
2022-10-21T12:18:23.464Z,1.80
2022-10-21T12:21:27.395Z,2.13
2022-10-21T12:24:45.048Z,2.33
2022-10-21T12:27:58.104Z,2.20
2022-10-21T12:31:37.635Z,2.78
2022-10-21T12:34:39.318Z,2.25
2022-10-21T12:38:04.252Z,2.80
2022-10-21T12:41:21.135Z,2.75
2022-10-21T12:44:27.675Z,2.20
2022-10-21T12:47:31.767Z,2.30
2022-10-21T12:50:34.607Z,2.50
2022-10-21T12:53:48.645Z,2.22
2022-10-21T12:56:59.268Z,2.08
2022-10-21T13:00:22.223Z,3.03
2022-10-21T13:03:45.604Z,2.95
2022-10-21T13:07:01.478Z,2.85
2022-10-21T13:10:05.884Z,3.25
2022-10-21T13:13:44.908Z,2.28
2022-10-21T13:16:52.304Z,2.00
2022-10-21T13:19:56.914Z,2.03
2022-10-21T13:23:32.123Z,7.22
2022-10-21T13:26:33.675Z,2.50
2022-10-21T13:29:38.025Z,4.70
2022-10-21T13:32:40.296Z,3.95
2022-10-21T13:35:49.953Z,2.75
2022-10-21T13:38:55.502Z,3.03
2022-10-21T13:42:02.263Z,2.70
2022-10-21T13:45:31.238Z,2.72
2022-10-21T13:48:41.333Z,2.70
2022-10-21T13:51:46.703Z,2.70
2022-10-21T13:54:57.407Z,1.85
2022-10-21T13:57:58.996Z,1.85
2022-10-21T14:01:07.454Z,2.75
2022-10-21T14:04:15.610Z,4.00
2022-10-21T14:07:19.263Z,1.83
2022-10-21T14:10:24.529Z,2.08
2022-10-21T14:13:31.365Z,4.97
2022-10-21T14:16:37.396Z,5.03
2022-10-21T14:19:38.937Z,3.40
2022-10-21T14:22:40.984Z,3.45
2022-10-21T14:25:42.779Z,4.20
2022-10-21T14:28:45.990Z,2.90
2022-10-21T14:31:47.617Z,1.47
2022-10-21T14:35:21.356Z,2.42
2022-10-21T14:38:36.070Z,2.88
2022-10-21T14:41:44.461Z,1.70
2022-10-21T14:44:48.504Z,1.75
2022-10-21T14:50:56.231Z,2.65
2022-10-21T14:54:05.230Z,2.10
2022-10-21T14:57:26.836Z,2.05
2022-10-21T15:00:41.500Z,2.05
2022-10-21T15:03:49.821Z,1.80
2022-10-21T15:07:01.607Z,2.30
2022-10-21T15:10:03.013Z,1.92
2022-10-21T15:13:18.360Z,1.75
2022-10-21T15:16:21.064Z,1.75
2022-10-21T15:19:42.595Z,1.80
2022-10-21T15:22:48.491Z,2.17
2022-10-21T15:26:00.443Z,2.78
2022-10-21T15:29:12.409Z,2.60
2022-10-21T15:32:26.861Z,2.30
2022-10-21T15:35:31.027Z,2.67
2022-10-21T15:38:32.572Z,2.60
2022-10-21T15:41:34.060Z,2.33
2022-10-21T15:44:35.900Z,2.53
2022-10-21T15:47:38.593Z,2.83
2022-10-21T15:50:44.341Z,3.05
2022-10-21T15:53:46.008Z,2.50
2022-10-21T15:56:51.160Z,2.75
2022-10-21T15:59:52.645Z,3.85
2022-10-21T16:02:54.124Z,3.22
2022-10-21T16:05:56.169Z,3.63
2022-10-21T16:08:57.711Z,3.25
2022-10-21T16:12:00.656Z,2.65
2022-10-21T16:15:02.721Z,2.58
2022-10-21T16:18:11.224Z,3.88
2022-10-21T16:21:14.592Z,4.25
2022-10-21T16:24:16.037Z,3.70
2022-10-21T16:27:31.374Z,4.85
2022-10-21T16:30:41.938Z,4.45
2022-10-21T16:33:44.179Z,4.10
2022-10-21T16:36:45.671Z,3.70
2022-10-21T16:39:47.361Z,3.30
2022-10-21T16:42:50.257Z,3.22
2022-10-21T16:45:51.677Z,3.28
2022-10-21T16:48:54.121Z,2.95
2022-10-21T16:51:57.457Z,3.83
2022-10-21T16:54:58.947Z,3.63
2022-10-21T16:58:00.402Z,4.43
2022-10-21T17:01:06.404Z,3.72
2022-10-21T17:04:08.128Z,3.53
2022-10-21T17:07:10.920Z,3.42
2022-10-21T17:10:12.445Z,3.88
2022-10-21T17:13:13.947Z,5.10
2022-10-21T17:16:15.843Z,4.60
2022-10-21T17:19:17.656Z,5.45
2022-10-21T17:22:19.395Z,3.83
2022-10-21T17:25:22.762Z,4.20
2022-10-21T17:28:24.310Z,4.00
2022-10-21T17:31:28.232Z,3.30
2022-10-21T17:34:32.727Z,3.53
2022-10-21T17:37:34.230Z,5.50
2022-10-21T17:40:35.808Z,5.25
2022-10-21T17:43:37.451Z,4.63
2022-10-21T17:46:39.951Z,4.60
2022-10-21T17:49:41.913Z,3.90
2022-10-21T17:52:43.527Z,4.70
2022-10-21T17:55:44.973Z,4.70
2022-10-21T17:58:50.637Z,5.10
2022-10-21T18:01:52.229Z,6.03
2022-10-21T18:05:10.701Z,12.75
2022-10-21T18:08:12.272Z,6.20
2022-10-21T18:11:15.893Z,4.13
2022-10-21T18:14:17.559Z,5.57
2022-10-21T18:17:19.773Z,5.70
2022-10-21T18:20:22.588Z,4.75
2022-10-21T18:23:24.116Z,5.53
2022-10-21T18:26:28.915Z,5.03
2022-10-21T18:29:33.156Z,4.15
2022-10-21T18:32:34.793Z,5.35
2022-10-21T18:35:37.841Z,5.40
2022-10-21T18:38:39.867Z,4.18
2022-10-21T18:41:41.605Z,4.18
2022-10-21T18:44:43.632Z,3.63
2022-10-21T18:47:47.331Z,3.60
2022-10-21T18:50:48.922Z,4.35
2022-10-21T18:53:52.761Z,4.30
2022-10-21T18:56:55.021Z,4.47
2022-10-21T18:59:56.901Z,6.85
2022-10-21T19:02:58.359Z,6.03
2022-10-21T19:06:34.077Z,6.07
2022-10-21T19:09:35.789Z,7.35
2022-10-21T19:12:37.248Z,6.05
2022-10-21T19:15:45.066Z,5.55
2022-10-21T19:18:46.575Z,4.60
2022-10-21T19:21:48.137Z,6.07
2022-10-21T19:24:49.608Z,4.72
2022-10-21T19:27:51.049Z,4.45
2022-10-21T19:30:52.704Z,4.78
2022-10-21T19:33:54.500Z,5.28
2022-10-21T19:36:56.154Z,4.45
2022-10-21T19:39:57.975Z,5.53
2022-10-21T19:42:59.661Z,5.65
2022-10-21T19:46:03.052Z,6.07
2022-10-21T19:49:06.428Z,6.93
2022-10-21T19:52:08.038Z,5.63
2022-10-21T19:55:09.570Z,7.20
2022-10-21T19:58:14.301Z,5.70
2022-10-21T20:01:21.399Z,5.57
2022-10-21T20:04:24.704Z,5.65
2022-10-21T20:07:26.227Z,5.27
2022-10-21T20:10:28.072Z,7.10
2022-10-21T20:13:29.876Z,5.60
2022-10-21T20:16:42.283Z,6.13
2022-10-21T20:19:47.524Z,4.97
2022-10-21T20:22:49.037Z,5.20
2022-10-21T20:25:54.178Z,5.18
2022-10-21T20:28:56.464Z,5.53
2022-10-21T20:32:01.194Z,4.25
2022-10-21T20:35:02.912Z,5.10
2022-10-21T20:38:04.423Z,3.03
2022-10-21T20:41:09.425Z,2.83
2022-10-21T20:44:16.045Z,3.33
2022-10-21T20:47:19.084Z,3.97
2022-10-21T20:50:20.555Z,3.67
2022-10-21T20:53:22.474Z,2.90
2022-10-21T20:56:33.550Z,3.33
2022-10-21T20:59:38.104Z,3.97
2022-10-21T21:02:39.640Z,3.65
2022-10-21T21:05:41.107Z,3.47
2022-10-21T21:08:53.495Z,4.00
2022-10-21T21:12:04.557Z,3.28
2022-10-21T21:15:06.709Z,3.90
2022-10-21T21:18:11.452Z,3.75
2022-10-21T21:21:15.072Z,5.03
2022-10-21T21:24:16.553Z,6.20
2022-10-21T21:27:19.203Z,5.25
2022-10-21T21:30:20.632Z,4.10
2022-10-21T21:33:22.204Z,4.28
2022-10-21T21:36:24.291Z,4.90
2022-10-21T21:39:25.949Z,4.32
2022-10-21T21:42:27.432Z,3.67
2022-10-21T21:45:28.892Z,4.20
2022-10-21T21:48:33.928Z,4.32
2022-10-21T21:51:36.657Z,3.70
2022-10-21T21:54:38.217Z,3.65
2022-10-21T21:57:39.749Z,3.03
2022-10-21T22:00:41.260Z,3.03
2022-10-21T22:03:42.962Z,3.20
2022-10-21T22:06:44.461Z,3.08
2022-10-21T22:09:45.897Z,2.80
2022-10-21T22:12:47.733Z,2.70
2022-10-21T22:15:51.953Z,2.80
2022-10-21T22:18:54.472Z,2.53
2022-10-21T22:21:55.936Z,2.45
2022-10-21T22:24:57.430Z,3.40
2022-10-21T22:27:58.876Z,2.40
2022-10-21T22:31:13.053Z,2.50
2022-10-21T22:34:14.549Z,2.58
2022-10-21T22:37:16.018Z,2.72
2022-10-21T22:40:17.626Z,2.53
2022-10-21T22:43:19.124Z,2.70
2022-10-21T22:46:32.831Z,3.85
2022-10-21T22:49:35.548Z,3.28
2022-10-21T22:52:37.329Z,3.30
2022-10-21T22:55:39.684Z,3.22
2022-10-21T22:58:41.223Z,2.50
2022-10-21T23:01:42.797Z,2.75
2022-10-21T23:04:44.399Z,2.58
2022-10-21T23:07:45.863Z,2.90
2022-10-21T23:10:48.842Z,2.55
2022-10-21T23:14:02.078Z,2.47
2022-10-21T23:17:04.870Z,1.75
2022-10-21T23:20:07.004Z,1.50
2022-10-21T23:23:09.666Z,2.60
2022-10-21T23:26:11.144Z,1.42
2022-10-21T23:29:12.649Z,1.58
2022-10-21T23:32:14.139Z,1.55
2022-10-21T23:35:16.036Z,1.65
2022-10-21T23:38:17.684Z,1.90
2022-10-21T23:41:19.148Z,1.60
2022-10-21T23:44:20.632Z,1.33
2022-10-21T23:47:22.153Z,1.73
2022-10-21T23:50:23.755Z,1.85
2022-10-21T23:53:25.265Z,1.80
2022-10-21T23:56:26.823Z,1.95
2022-10-21T23:59:28.249Z,1.98
